createdAt,value
2024-03-05T00:00:01.776Z,285.00
2024-03-05T00:00:15.778Z,284.00
2024-03-05T00:00:29.761Z,283.00
2024-03-05T00:00:43.813Z,284.00
2024-03-05T00:01:11.851Z,282.00
2024-03-05T00:01:25.975Z,282.00
2024-03-05T00:01:40.090Z,283.00
2024-03-05T00:01:54.225Z,283.00
2024-03-05T00:02:22.241Z,282.00
2024-03-05T00:02:36.232Z,282.00
2024-03-05T00:02:50.252Z,282.00
2024-03-05T00:03:04.273Z,282.00
2024-03-05T00:03:32.278Z,282.00
2024-03-05T00:03:46.284Z,280.00
2024-03-05T00:04:00.280Z,278.00
2024-03-05T00:04:14.295Z,278.00
2024-03-05T00:04:42.372Z,277.00
2024-03-05T00:04:56.482Z,277.00
2024-03-05T00:05:10.537Z,277.00
2024-03-05T00:05:24.759Z,275.00
2024-03-05T00:05:52.854Z,275.00
2024-03-05T00:06:06.847Z,275.00
2024-03-05T00:06:20.831Z,277.00
2024-03-05T00:06:34.830Z,275.00
2024-03-05T00:06:48.841Z,276.00
2024-03-05T00:07:02.857Z,276.00
2024-03-05T00:07:16.995Z,275.00
2024-03-05T00:07:31.139Z,274.00
2024-03-05T00:07:45.220Z,275.00
2024-03-05T00:08:13.208Z,276.00
2024-03-05T00:08:27.186Z,276.00
2024-03-05T00:08:41.179Z,276.00
2024-03-05T00:08:55.177Z,276.00
2024-03-05T00:09:23.129Z,278.00
2024-03-05T00:09:37.130Z,278.00
2024-03-05T00:09:51.113Z,278.00
2024-03-05T00:10:05.126Z,277.00
2024-03-05T00:10:33.316Z,277.00
2024-03-05T00:10:47.662Z,276.00
2024-03-05T00:11:01.893Z,276.00
2024-03-05T00:11:16.182Z,277.00
2024-03-05T00:11:44.303Z,276.00
2024-03-05T00:11:58.394Z,276.00
2024-03-05T00:12:12.480Z,276.00
2024-03-05T00:12:26.463Z,277.00
2024-03-05T00:12:54.472Z,277.00
2024-03-05T00:13:08.586Z,277.00
2024-03-05T00:13:22.630Z,276.00
2024-03-05T00:13:36.652Z,277.00
2024-03-05T00:14:04.622Z,276.00
2024-03-05T00:14:18.620Z,276.00
2024-03-05T00:14:32.658Z,275.00
2024-03-05T00:14:46.655Z,276.00
2024-03-05T00:15:14.694Z,276.00
2024-03-05T00:15:28.928Z,277.00
2024-03-05T00:15:42.957Z,277.00
2024-03-05T00:15:56.947Z,277.00
2024-03-05T00:16:25.016Z,276.00
2024-03-05T00:16:39.081Z,276.00
2024-03-05T00:16:53.221Z,277.00
2024-03-05T00:17:07.317Z,278.00
2024-03-05T00:17:35.418Z,278.00
2024-03-05T00:17:49.464Z,278.00
2024-03-05T00:18:03.558Z,279.00
2024-03-05T00:18:17.559Z,280.00
2024-03-05T00:18:45.548Z,280.00
2024-03-05T00:18:59.565Z,280.00
2024-03-05T00:19:13.607Z,279.00
2024-03-05T00:19:27.695Z,280.00
2024-03-05T00:19:55.743Z,280.00
2024-03-05T00:20:09.776Z,279.00
2024-03-05T00:20:23.789Z,279.00
2024-03-05T00:20:37.829Z,279.00
2024-03-05T00:21:05.790Z,278.00
2024-03-05T00:21:19.822Z,277.00
2024-03-05T00:21:33.842Z,277.00
2024-03-05T00:21:47.859Z,277.00
2024-03-05T00:22:15.921Z,276.00
2024-03-05T00:22:30.011Z,276.00
2024-03-05T00:22:44.125Z,276.00
2024-03-05T00:22:58.158Z,277.00
2024-03-05T00:23:26.140Z,278.00
2024-03-05T00:23:40.159Z,279.00
2024-03-05T00:23:54.170Z,279.00
2024-03-05T00:24:08.162Z,279.00
2024-03-05T00:24:36.132Z,280.00
2024-03-05T00:24:50.146Z,281.00
2024-03-05T00:25:04.120Z,282.00
2024-03-05T00:25:18.188Z,282.00
2024-03-05T00:25:46.286Z,282.00
2024-03-05T00:26:00.324Z,282.00
2024-03-05T00:26:14.335Z,281.00
2024-03-05T00:26:28.327Z,280.00
2024-03-05T00:26:56.332Z,279.00
2024-03-05T00:27:10.323Z,279.00
2024-03-05T00:27:24.305Z,279.00
2024-03-05T00:27:38.301Z,280.00
2024-03-05T00:28:06.499Z,279.00
2024-03-05T00:28:20.564Z,278.00
2024-03-05T00:28:34.641Z,277.00
2024-03-05T00:28:48.726Z,277.00
2024-03-05T00:29:16.708Z,278.00
2024-03-05T00:29:30.701Z,277.00
2024-03-05T00:29:44.710Z,278.00
2024-03-05T00:29:58.707Z,278.00
2024-03-05T00:30:26.702Z,279.00
2024-03-05T00:30:40.700Z,278.00
2024-03-05T00:30:54.685Z,279.00
2024-03-05T00:31:08.706Z,278.00
2024-03-05T00:31:36.753Z,280.00
2024-03-05T00:31:50.809Z,280.00
2024-03-05T00:32:04.839Z,280.00
2024-03-05T00:32:18.838Z,280.00
2024-03-05T00:32:32.877Z,280.00
2024-03-05T00:32:46.970Z,278.00
2024-03-05T00:33:01.025Z,277.00
2024-03-05T00:33:15.150Z,278.00
2024-03-05T00:33:29.211Z,279.00
2024-03-05T00:33:57.227Z,278.00
2024-03-05T00:34:11.227Z,278.00
2024-03-05T00:34:25.237Z,277.00
2024-03-05T00:34:39.323Z,277.00
2024-03-05T00:35:07.407Z,278.00
2024-03-05T00:35:21.384Z,278.00
2024-03-05T00:35:35.401Z,278.00
2024-03-05T00:35:49.402Z,278.00
2024-03-05T00:36:17.362Z,277.00
2024-03-05T00:36:31.354Z,278.00
2024-03-05T00:36:45.348Z,278.00
2024-03-05T00:36:59.376Z,279.00
2024-03-05T00:37:27.405Z,279.00
2024-03-05T00:37:41.465Z,281.00
2024-03-05T00:37:55.577Z,282.00
2024-03-05T00:38:18.048Z,282.00
2024-03-05T00:38:37.407Z,280.00
2024-03-05T00:38:51.430Z,281.00
2024-03-05T00:39:05.412Z,282.00
2024-03-05T00:39:19.419Z,281.00
2024-03-05T00:39:47.728Z,282.00
2024-03-05T00:40:01.716Z,282.00
2024-03-05T00:40:15.906Z,282.00
2024-03-05T00:40:29.964Z,282.00
2024-03-05T00:40:58.039Z,281.00
2024-03-05T00:41:12.077Z,281.00
2024-03-05T00:41:26.074Z,281.00
2024-03-05T00:41:40.061Z,281.00
2024-03-05T00:42:08.062Z,281.00
2024-03-05T00:42:22.114Z,281.00
2024-03-05T00:42:36.108Z,282.00
2024-03-05T00:42:50.102Z,281.00
2024-03-05T00:43:18.142Z,282.00
2024-03-05T00:43:32.203Z,282.00
2024-03-05T00:43:46.312Z,282.00
2024-03-05T00:44:00.430Z,282.00
2024-03-05T00:44:28.486Z,283.00
2024-03-05T00:44:42.508Z,283.00
2024-03-05T00:44:56.492Z,282.00
2024-03-05T00:45:10.493Z,283.00
2024-03-05T00:45:24.520Z,283.00
2024-03-05T00:45:38.540Z,282.00
2024-03-05T00:45:52.519Z,283.00
2024-03-05T00:46:06.498Z,284.00
2024-03-05T00:46:20.525Z,284.00
2024-03-05T00:46:48.583Z,282.00
2024-03-05T00:47:02.657Z,282.00
2024-03-05T00:47:16.652Z,282.00
2024-03-05T00:47:30.661Z,283.00
2024-03-05T00:47:58.678Z,284.00
2024-03-05T00:48:12.680Z,284.00
2024-03-05T00:48:26.671Z,283.00
2024-03-05T00:48:40.679Z,284.00
2024-03-05T00:49:10.498Z,282.00
2024-03-05T00:49:22.376Z,282.00
2024-03-05T00:49:36.417Z,283.00
2024-03-05T00:49:50.510Z,283.00
2024-03-05T00:50:18.466Z,283.00
2024-03-05T00:50:32.464Z,282.00
2024-03-05T00:50:46.505Z,281.00
2024-03-05T00:51:00.527Z,282.00
2024-03-05T00:51:28.496Z,283.00
2024-03-05T00:51:42.481Z,283.00
2024-03-05T00:51:56.485Z,283.00
2024-03-05T00:52:10.480Z,282.00
2024-03-05T00:52:38.540Z,283.00
2024-03-05T00:52:52.627Z,282.00
2024-03-05T00:53:06.677Z,284.00
2024-03-05T00:53:20.679Z,283.00
2024-03-05T00:53:48.628Z,283.00
2024-03-05T00:54:02.631Z,283.00
2024-03-05T00:54:16.637Z,283.00
2024-03-05T00:54:30.629Z,284.00
2024-03-05T00:54:58.606Z,284.00
2024-03-05T00:55:12.699Z,283.00
2024-03-05T00:55:26.791Z,283.00
2024-03-05T00:55:40.865Z,282.00
2024-03-05T00:56:08.868Z,281.00
2024-03-05T00:56:22.861Z,281.00
2024-03-05T00:56:36.857Z,281.00
2024-03-05T00:56:50.842Z,281.00
2024-03-05T00:57:18.832Z,280.00
2024-03-05T00:57:32.849Z,280.00
2024-03-05T00:57:46.830Z,280.00
2024-03-05T00:58:00.865Z,280.00
2024-03-05T00:58:28.882Z,280.00
2024-03-05T00:58:42.973Z,279.00
2024-03-05T00:58:56.996Z,278.00
2024-03-05T00:59:11.018Z,278.00
2024-03-05T00:59:38.988Z,278.00
2024-03-05T00:59:52.980Z,277.00
2024-03-05T01:00:07.070Z,277.00
2024-03-05T01:00:21.155Z,277.00
2024-03-05T01:00:49.140Z,278.00
2024-03-05T01:01:03.165Z,277.00
2024-03-05T01:01:17.316Z,277.00
2024-03-05T01:01:31.464Z,277.00
2024-03-05T01:01:59.509Z,277.00
2024-03-05T01:02:13.617Z,277.00
2024-03-05T01:02:27.750Z,278.00
2024-03-05T01:02:41.790Z,277.00
2024-03-05T01:03:09.778Z,278.00
2024-03-05T01:03:23.786Z,278.00
2024-03-05T01:03:37.775Z,278.00
2024-03-05T01:03:51.762Z,277.00
2024-03-05T01:04:19.743Z,276.00
2024-03-05T01:04:33.787Z,276.00
2024-03-05T01:04:47.813Z,276.00
2024-03-05T01:05:01.843Z,276.00
2024-03-05T01:05:29.842Z,277.00
2024-03-05T01:05:43.867Z,277.00
2024-03-05T01:05:57.880Z,277.00
2024-03-05T01:06:11.924Z,276.00
2024-03-05T01:06:39.914Z,276.00
2024-03-05T01:06:53.916Z,275.00
2024-03-05T01:07:07.921Z,275.00
2024-03-05T01:07:22.097Z,276.00
2024-03-05T01:07:50.137Z,276.00
2024-03-05T01:08:04.194Z,275.00
2024-03-05T01:08:18.240Z,276.00
2024-03-05T01:08:32.244Z,277.00
2024-03-05T01:09:00.232Z,277.00
2024-03-05T01:09:14.229Z,276.00
2024-03-05T01:09:28.227Z,277.00
2024-03-05T01:09:42.249Z,277.00
2024-03-05T01:10:10.248Z,276.00
2024-03-05T01:10:24.256Z,276.00
2024-03-05T01:10:38.307Z,277.00
2024-03-05T01:10:52.390Z,277.00
2024-03-05T01:11:20.453Z,278.00
2024-03-05T01:11:34.595Z,277.00
2024-03-05T01:11:48.636Z,277.00
2024-03-05T01:12:02.658Z,276.00
2024-03-05T01:12:30.669Z,276.00
2024-03-05T01:12:44.648Z,277.00
2024-03-05T01:12:58.662Z,275.00
2024-03-05T01:13:12.723Z,276.00
2024-03-05T01:13:40.791Z,275.00
2024-03-05T01:13:54.881Z,275.00
2024-03-05T01:14:08.943Z,274.00
2024-03-05T01:14:22.939Z,274.00
2024-03-05T01:14:50.933Z,273.00
2024-03-05T01:15:04.929Z,273.00
2024-03-05T01:15:18.933Z,273.00
2024-03-05T01:15:32.918Z,272.00
2024-03-05T01:15:46.913Z,273.00
2024-03-05T01:16:00.905Z,273.00
2024-03-05T01:16:14.954Z,273.00
2024-03-05T01:16:29.008Z,273.00
2024-03-05T01:16:43.114Z,274.00
2024-03-05T01:17:11.110Z,274.00
2024-03-05T01:17:25.088Z,274.00
2024-03-05T01:17:39.147Z,274.00
2024-03-05T01:17:53.203Z,275.00
2024-03-05T01:18:21.234Z,277.00
2024-03-05T01:18:35.212Z,277.00
2024-03-05T01:18:49.194Z,276.00
2024-03-05T01:19:03.182Z,275.00
2024-03-05T01:19:31.179Z,275.00
2024-03-05T01:19:45.222Z,275.00
2024-03-05T01:19:59.249Z,275.00
2024-03-05T01:20:13.323Z,275.00
2024-03-05T01:20:41.304Z,274.00
2024-03-05T01:20:55.284Z,275.00
2024-03-05T01:21:09.282Z,274.00
2024-03-05T01:21:23.292Z,275.00
2024-03-05T01:21:51.244Z,275.00
2024-03-05T01:22:05.271Z,275.00
2024-03-05T01:22:19.328Z,275.00
2024-03-05T01:22:33.360Z,274.00
2024-03-05T01:23:01.421Z,274.00
2024-03-05T01:23:16.252Z,273.00
2024-03-05T01:23:30.306Z,275.00
2024-03-05T01:23:44.315Z,275.00
2024-03-05T01:24:12.284Z,275.00
2024-03-05T01:24:26.301Z,274.00
2024-03-05T01:24:40.302Z,273.00
2024-03-05T01:24:54.306Z,273.00
2024-03-05T01:25:23.311Z,274.00
2024-03-05T01:25:37.417Z,273.00
2024-03-05T01:25:51.489Z,274.00
2024-03-05T01:26:05.537Z,273.00
2024-03-05T01:26:33.545Z,273.00
2024-03-05T01:26:47.554Z,272.00
2024-03-05T01:27:01.536Z,273.00
2024-03-05T01:27:15.565Z,273.00
2024-03-05T01:27:43.794Z,273.00
2024-03-05T01:27:57.803Z,274.00
2024-03-05T01:28:11.846Z,275.00
2024-03-05T01:28:25.918Z,275.00
2024-03-05T01:28:54.075Z,273.00
2024-03-05T01:29:08.132Z,274.00
2024-03-05T01:29:22.125Z,275.00
2024-03-05T01:29:36.110Z,274.00
2024-03-05T01:30:05.738Z,273.00
2024-03-05T01:30:17.847Z,274.00
2024-03-05T01:30:31.892Z,274.00
2024-03-05T01:30:45.887Z,274.00
2024-03-05T01:31:13.875Z,274.00
2024-03-05T01:31:27.924Z,276.00
2024-03-05T01:31:41.976Z,275.00
2024-03-05T01:31:56.015Z,276.00
2024-03-05T01:32:24.030Z,276.00
2024-03-05T01:32:38.076Z,277.00
2024-03-05T01:32:52.175Z,278.00
2024-03-05T01:33:06.217Z,278.00
2024-03-05T01:33:34.216Z,279.00
2024-03-05T01:33:48.250Z,278.00
2024-03-05T01:34:02.233Z,278.00
2024-03-05T01:34:16.278Z,278.00
2024-03-05T01:34:44.380Z,279.00
2024-03-05T01:34:58.526Z,279.00
2024-03-05T01:35:12.728Z,279.00
2024-03-05T01:35:26.911Z,278.00
2024-03-05T01:35:54.888Z,277.00
2024-03-05T01:36:08.915Z,277.00
2024-03-05T01:36:22.929Z,276.00
2024-03-05T01:36:36.927Z,276.00
2024-03-05T01:37:04.878Z,275.00
2024-03-05T01:37:18.884Z,275.00
2024-03-05T01:37:32.930Z,274.00
2024-03-05T01:37:46.991Z,274.00
2024-03-05T01:38:14.981Z,275.00
2024-03-05T01:38:28.966Z,275.00
2024-03-05T01:38:42.978Z,275.00
2024-03-05T01:38:56.993Z,275.00
2024-03-05T01:39:24.969Z,275.00
2024-03-05T01:39:38.971Z,276.00
2024-03-05T01:39:52.965Z,276.00
2024-03-05T01:40:07.011Z,276.00
2024-03-05T01:40:35.100Z,277.00
2024-03-05T01:40:49.265Z,277.00
2024-03-05T01:41:03.370Z,277.00
2024-03-05T01:41:17.399Z,276.00
2024-03-05T01:41:31.424Z,277.00
2024-03-05T01:41:45.446Z,276.00
2024-03-05T01:41:59.457Z,277.00
2024-03-05T01:42:13.450Z,277.00
2024-03-05T01:42:27.456Z,278.00
2024-03-05T01:42:55.436Z,278.00
2024-03-05T01:43:09.452Z,278.00
2024-03-05T01:43:23.523Z,278.00
2024-03-05T01:43:37.607Z,278.00
2024-03-05T01:44:05.576Z,277.00
2024-03-05T01:44:19.600Z,277.00
2024-03-05T01:44:33.645Z,278.00
2024-03-05T01:44:47.640Z,278.00
2024-03-05T01:45:15.618Z,278.00
2024-03-05T01:45:29.649Z,278.00
2024-03-05T01:45:43.999Z,277.00
2024-03-05T01:45:58.142Z,277.00
2024-03-05T01:46:26.104Z,277.00
2024-03-05T01:46:40.159Z,277.00
2024-03-05T01:46:54.379Z,277.00
2024-03-05T01:47:08.428Z,277.00
2024-03-05T01:47:36.516Z,276.00
2024-03-05T01:47:50.551Z,276.00
2024-03-05T01:48:04.586Z,276.00
2024-03-05T01:48:18.614Z,275.00
2024-03-05T01:48:46.614Z,275.00
2024-03-05T01:49:00.642Z,275.00
2024-03-05T01:49:14.662Z,275.00
2024-03-05T01:49:28.817Z,275.00
2024-03-05T01:49:57.077Z,274.00
2024-03-05T01:50:11.129Z,274.00
2024-03-05T01:50:25.128Z,273.00
2024-03-05T01:50:39.124Z,273.00
2024-03-05T01:51:07.129Z,272.00
2024-03-05T01:51:21.116Z,272.00
2024-03-05T01:51:35.110Z,272.00
2024-03-05T01:51:49.108Z,273.00
2024-03-05T01:52:17.134Z,273.00
2024-03-05T01:52:31.212Z,273.00
2024-03-05T01:52:45.363Z,273.00
2024-03-05T01:52:59.451Z,274.00
2024-03-05T01:53:27.445Z,274.00
2024-03-05T01:53:41.424Z,273.00
2024-03-05T01:53:55.425Z,273.00
2024-03-05T01:54:09.443Z,274.00
2024-03-05T01:54:37.437Z,275.00
2024-03-05T01:54:51.434Z,274.00
2024-03-05T01:55:05.414Z,274.00
2024-03-05T01:55:19.461Z,275.00
2024-03-05T01:55:47.513Z,275.00
2024-03-05T01:56:01.602Z,274.00
2024-03-05T01:56:15.649Z,274.00
2024-03-05T01:56:29.647Z,274.00
2024-03-05T01:56:57.622Z,274.00
2024-03-05T01:57:11.616Z,273.00
2024-03-05T01:57:25.625Z,273.00
2024-03-05T01:57:39.635Z,274.00
2024-03-05T01:58:07.637Z,274.00
2024-03-05T01:58:21.698Z,275.00
2024-03-05T01:58:35.756Z,275.00
2024-03-05T01:58:49.889Z,275.00
2024-03-05T01:59:17.873Z,273.00
2024-03-05T01:59:31.858Z,273.00
2024-03-05T01:59:45.853Z,273.00
2024-03-05T01:59:59.855Z,273.00
2024-03-05T02:00:27.838Z,272.00
2024-03-05T02:00:41.843Z,273.00
2024-03-05T02:00:55.892Z,273.00
2024-03-05T02:01:09.972Z,272.00
2024-03-05T02:01:38.047Z,271.00
2024-03-05T02:01:52.155Z,271.00
2024-03-05T02:02:06.232Z,271.00
2024-03-05T02:02:20.300Z,270.00
2024-03-05T02:02:48.342Z,270.00
2024-03-05T02:03:02.331Z,270.00
2024-03-05T02:03:16.325Z,269.00
2024-03-05T02:03:30.342Z,269.00
2024-03-05T02:03:58.369Z,268.00
2024-03-05T02:04:12.396Z,268.00
2024-03-05T02:04:26.410Z,268.00
2024-03-05T02:04:40.474Z,269.00
2024-03-05T02:05:08.451Z,270.00
2024-03-05T02:05:22.452Z,269.00
2024-03-05T02:05:36.446Z,269.00
2024-03-05T02:05:50.445Z,268.00
2024-03-05T02:06:18.421Z,268.00
2024-03-05T02:06:32.411Z,268.00
2024-03-05T02:06:46.437Z,268.00
2024-03-05T02:07:00.422Z,268.00
2024-03-05T02:07:28.441Z,269.00
2024-03-05T02:07:42.573Z,269.00
2024-03-05T02:07:56.791Z,269.00
2024-03-05T02:08:11.443Z,269.00
2024-03-05T02:08:37.520Z,269.00
2024-03-05T02:08:51.522Z,269.00
2024-03-05T02:09:05.517Z,269.00
2024-03-05T02:09:19.531Z,270.00
2024-03-05T02:09:47.532Z,269.00
2024-03-05T02:10:01.525Z,269.00
2024-03-05T02:10:15.567Z,268.00
2024-03-05T02:10:29.626Z,268.00
2024-03-05T02:10:57.752Z,267.00
2024-03-05T02:11:11.899Z,268.00
2024-03-05T02:11:26.855Z,268.00
2024-03-05T02:11:49.601Z,267.00
2024-03-05T02:12:08.715Z,267.00
2024-03-05T02:12:22.768Z,266.00
2024-03-05T02:12:36.807Z,266.00
2024-03-05T02:12:50.802Z,266.00
2024-03-05T02:13:18.881Z,265.00
2024-03-05T02:13:32.985Z,266.00
2024-03-05T02:13:47.021Z,265.00
2024-03-05T02:14:01.061Z,265.00
2024-03-05T02:14:29.069Z,266.00
2024-03-05T02:14:43.071Z,266.00
2024-03-05T02:14:57.066Z,266.00
2024-03-05T02:15:11.071Z,265.00
2024-03-05T02:15:39.043Z,266.00
2024-03-05T02:15:53.082Z,266.00
2024-03-05T02:16:07.123Z,266.00
2024-03-05T02:16:21.171Z,266.00
2024-03-05T02:16:49.178Z,267.00
2024-03-05T02:17:03.195Z,267.00
2024-03-05T02:17:17.192Z,267.00
2024-03-05T02:17:31.251Z,267.00
2024-03-05T02:17:59.237Z,267.00
2024-03-05T02:18:13.345Z,267.00
2024-03-05T02:18:27.403Z,268.00
2024-03-05T02:18:41.412Z,268.00
2024-03-05T02:19:09.412Z,269.00
2024-03-05T02:19:23.423Z,268.00
2024-03-05T02:19:37.527Z,268.00
2024-03-05T02:19:51.671Z,269.00
2024-03-05T02:20:19.794Z,269.00
2024-03-05T02:20:33.811Z,269.00
2024-03-05T02:20:47.798Z,269.00
2024-03-05T02:21:01.806Z,269.00
2024-03-05T02:21:29.750Z,268.00
2024-03-05T02:21:43.732Z,268.00
2024-03-05T02:21:57.734Z,268.00
2024-03-05T02:22:11.744Z,268.00
2024-03-05T02:22:39.767Z,268.00
2024-03-05T02:22:53.832Z,268.00
2024-03-05T02:23:07.871Z,267.00
2024-03-05T02:23:21.864Z,267.00
2024-03-05T02:23:49.810Z,268.00
2024-03-05T02:24:03.810Z,268.00
2024-03-05T02:24:17.800Z,267.00
2024-03-05T02:24:31.842Z,267.00
2024-03-05T02:24:45.857Z,268.00
2024-03-05T02:24:59.865Z,268.00
2024-03-05T02:25:15.372Z,268.00
2024-03-05T02:25:28.256Z,267.00
2024-03-05T02:25:42.335Z,267.00
2024-03-05T02:26:10.393Z,266.00
2024-03-05T02:26:24.402Z,266.00
2024-03-05T02:26:38.415Z,266.00
2024-03-05T02:26:52.403Z,266.00
2024-03-05T02:27:27.142Z,266.00
2024-03-05T02:27:35.296Z,267.00
2024-03-05T02:27:46.986Z,267.00
2024-03-05T02:28:00.982Z,268.00
2024-03-05T02:28:28.990Z,267.00
2024-03-05T02:28:43.044Z,268.00
2024-03-05T02:28:57.072Z,268.00
2024-03-05T02:29:11.072Z,268.00
2024-03-05T02:29:25.061Z,269.00
2024-03-05T02:29:39.080Z,270.00
2024-03-05T02:29:53.072Z,271.00
2024-03-05T02:30:07.069Z,272.00
2024-03-05T02:30:21.054Z,272.00
2024-03-05T02:30:48.396Z,272.00
2024-03-05T02:31:02.380Z,273.00
2024-03-05T02:31:16.411Z,273.00
2024-03-05T02:31:30.429Z,273.00
2024-03-05T02:31:58.500Z,273.00
2024-03-05T02:32:12.509Z,273.00
2024-03-05T02:32:26.562Z,273.00
2024-03-05T02:32:40.574Z,274.00
2024-03-05T02:33:08.604Z,273.00
2024-03-05T02:33:22.654Z,273.00
2024-03-05T02:33:36.645Z,273.00
2024-03-05T02:33:50.637Z,272.00
2024-03-05T02:34:18.687Z,273.00
2024-03-05T02:34:32.716Z,272.00
2024-03-05T02:34:46.736Z,271.00
2024-03-05T02:35:00.920Z,271.00
2024-03-05T02:35:28.964Z,270.00
2024-03-05T02:35:42.970Z,269.00
2024-03-05T02:35:57.036Z,269.00
2024-03-05T02:36:11.054Z,269.00
2024-03-05T02:36:39.014Z,268.00
2024-03-05T02:36:53.028Z,269.00
2024-03-05T02:37:07.064Z,269.00
2024-03-05T02:37:21.091Z,269.00
2024-03-05T02:37:49.194Z,269.00
2024-03-05T02:38:03.360Z,270.00
2024-03-05T02:38:17.350Z,270.00
2024-03-05T02:38:31.355Z,270.00
2024-03-05T02:38:59.345Z,270.00
2024-03-05T02:39:13.348Z,269.00
2024-03-05T02:39:27.347Z,269.00
2024-03-05T02:39:41.341Z,270.00
2024-03-05T02:40:09.328Z,270.00
2024-03-05T02:40:23.363Z,271.00
2024-03-05T02:40:37.516Z,270.00
2024-03-05T02:40:51.584Z,271.00
2024-03-05T02:41:19.627Z,270.00
2024-03-05T02:41:33.624Z,270.00
2024-03-05T02:41:47.631Z,269.00
2024-03-05T02:42:01.656Z,270.00
2024-03-05T02:42:15.651Z,269.00
2024-03-05T02:42:29.681Z,269.00
2024-03-05T02:42:43.678Z,269.00
2024-03-05T02:42:57.664Z,268.00
2024-03-05T02:43:11.658Z,268.00
2024-03-05T02:43:39.732Z,267.00
2024-03-05T02:43:53.830Z,267.00
2024-03-05T02:44:07.891Z,267.00
2024-03-05T02:44:21.934Z,267.00
2024-03-05T02:44:49.910Z,266.00
2024-03-05T02:45:03.908Z,266.00
2024-03-05T02:45:17.940Z,266.00
2024-03-05T02:45:31.973Z,266.00
2024-03-05T02:46:00.054Z,266.00
2024-03-05T02:46:14.065Z,266.00
2024-03-05T02:46:28.160Z,266.00
2024-03-05T02:46:42.242Z,266.00
2024-03-05T02:47:10.245Z,266.00
2024-03-05T02:47:24.245Z,267.00
2024-03-05T02:47:38.324Z,268.00
2024-03-05T02:47:52.403Z,268.00
2024-03-05T02:48:20.376Z,267.00
2024-03-05T02:48:34.366Z,267.00
2024-03-05T02:48:48.355Z,266.00
2024-03-05T02:49:02.341Z,266.00
2024-03-05T02:49:30.342Z,266.00
2024-03-05T02:49:44.384Z,267.00
2024-03-05T02:49:58.428Z,267.00
2024-03-05T02:50:12.712Z,267.00
2024-03-05T02:50:40.756Z,268.00
2024-03-05T02:50:54.740Z,268.00
2024-03-05T02:51:08.761Z,269.00
2024-03-05T02:51:22.749Z,269.00
2024-03-05T02:51:50.814Z,268.00
2024-03-05T02:52:04.826Z,268.00
2024-03-05T02:52:18.915Z,268.00
2024-03-05T02:52:32.967Z,268.00
2024-03-05T02:53:01.087Z,267.00
2024-03-05T02:53:15.137Z,268.00
2024-03-05T02:53:29.131Z,268.00
2024-03-05T02:53:43.137Z,268.00
2024-03-05T02:54:11.139Z,268.00
2024-03-05T02:54:25.163Z,268.00
2024-03-05T02:54:39.174Z,269.00
2024-03-05T02:54:53.170Z,268.00
2024-03-05T02:55:21.139Z,268.00
2024-03-05T02:55:35.171Z,269.00
2024-03-05T02:55:49.254Z,270.00
2024-03-05T02:56:03.323Z,271.00
2024-03-05T02:56:31.290Z,270.00
2024-03-05T02:56:45.287Z,271.00
2024-03-05T02:56:59.287Z,271.00
2024-03-05T02:57:13.280Z,272.00
2024-03-05T02:57:41.244Z,271.00
2024-03-05T02:57:55.267Z,270.00
2024-03-05T02:58:09.281Z,270.00
2024-03-05T02:58:23.287Z,271.00
2024-03-05T02:58:51.428Z,271.00
2024-03-05T02:59:05.512Z,270.00
2024-03-05T02:59:19.540Z,270.00
2024-03-05T02:59:33.527Z,270.00
2024-03-05T03:00:01.552Z,270.00
2024-03-05T03:00:15.565Z,269.00
2024-03-05T03:00:29.602Z,269.00
2024-03-05T03:00:43.647Z,268.00
2024-03-05T03:01:11.675Z,269.00
2024-03-05T03:01:25.811Z,268.00
2024-03-05T03:01:39.936Z,268.00
2024-03-05T03:01:54.045Z,268.00
2024-03-05T03:02:22.080Z,268.00
2024-03-05T03:02:36.087Z,268.00
2024-03-05T03:02:50.273Z,269.00
2024-03-05T03:03:04.430Z,269.00
2024-03-05T03:03:32.443Z,268.00
2024-03-05T03:03:46.437Z,269.00
2024-03-05T03:04:00.443Z,268.00
2024-03-05T03:04:14.532Z,268.00
2024-03-05T03:04:42.517Z,269.00
2024-03-05T03:04:56.567Z,268.00
2024-03-05T03:05:10.600Z,268.00
2024-03-05T03:05:24.676Z,268.00
2024-03-05T03:05:52.649Z,269.00
2024-03-05T03:06:06.645Z,269.00
2024-03-05T03:06:20.646Z,270.00
2024-03-05T03:06:34.648Z,270.00
2024-03-05T03:07:02.606Z,270.00
2024-03-05T03:07:16.651Z,270.00
2024-03-05T03:07:30.729Z,270.00
2024-03-05T03:07:44.831Z,270.00
2024-03-05T03:08:12.886Z,269.00
2024-03-05T03:08:26.969Z,269.00
2024-03-05T03:08:40.962Z,270.00
2024-03-05T03:08:54.956Z,270.00
2024-03-05T03:09:22.940Z,271.00
2024-03-05T03:09:36.924Z,270.00
2024-03-05T03:09:50.915Z,270.00
2024-03-05T03:10:04.943Z,270.00
2024-03-05T03:10:32.926Z,269.00
2024-03-05T03:10:47.020Z,269.00
2024-03-05T03:11:01.205Z,269.00
2024-03-05T03:11:15.388Z,268.00
2024-03-05T03:11:43.686Z,268.00
2024-03-05T03:11:57.949Z,267.00
2024-03-05T03:12:12.037Z,266.00
2024-03-05T03:12:26.030Z,267.00
2024-03-05T03:12:54.067Z,268.00
2024-03-05T03:13:08.058Z,268.00
2024-03-05T03:13:22.055Z,268.00
2024-03-05T03:13:36.086Z,268.00
2024-03-05T03:14:04.185Z,268.00
2024-03-05T03:14:18.194Z,268.00
2024-03-05T03:14:32.206Z,268.00
2024-03-05T03:14:46.207Z,267.00
2024-03-05T03:15:14.200Z,268.00
2024-03-05T03:15:28.193Z,268.00
2024-03-05T03:15:42.183Z,268.00
2024-03-05T03:15:56.196Z,268.00
2024-03-05T03:16:24.265Z,268.00
2024-03-05T03:16:38.310Z,268.00
2024-03-05T03:16:52.501Z,269.00
2024-03-05T03:17:06.527Z,269.00
2024-03-05T03:17:34.780Z,269.00
2024-03-05T03:17:49.163Z,268.00
2024-03-05T03:18:03.324Z,269.00
2024-03-05T03:18:17.382Z,269.00
2024-03-05T03:18:45.352Z,269.00
2024-03-05T03:18:59.349Z,268.00
2024-03-05T03:19:13.558Z,268.00
2024-03-05T03:19:27.725Z,268.00
2024-03-05T03:19:55.810Z,269.00
2024-03-05T03:20:09.817Z,268.00
2024-03-05T03:20:23.848Z,269.00
2024-03-05T03:20:37.842Z,268.00
2024-03-05T03:20:51.844Z,268.00
2024-03-05T03:21:05.833Z,268.00
2024-03-05T03:21:19.837Z,269.00
2024-03-05T03:21:33.858Z,269.00
2024-03-05T03:21:47.856Z,269.00
2024-03-05T03:22:15.873Z,269.00
2024-03-05T03:22:29.969Z,269.00
2024-03-05T03:22:43.986Z,269.00
2024-03-05T03:22:58.030Z,269.00
2024-03-05T03:23:26.002Z,269.00
2024-03-05T03:23:40.036Z,270.00
2024-03-05T03:23:54.052Z,270.00
2024-03-05T03:24:08.042Z,269.00
2024-03-05T03:24:36.041Z,268.00
2024-03-05T03:24:50.030Z,269.00
2024-03-05T03:25:04.029Z,268.00
2024-03-05T03:25:18.078Z,268.00
2024-03-05T03:25:46.119Z,267.00
2024-03-05T03:26:00.184Z,268.00
2024-03-05T03:26:14.274Z,267.00
2024-03-05T03:26:28.291Z,267.00
2024-03-05T03:26:56.291Z,267.00
2024-03-05T03:27:10.337Z,268.00
2024-03-05T03:27:24.324Z,268.00
2024-03-05T03:27:38.335Z,268.00
2024-03-05T03:28:06.292Z,269.00
2024-03-05T03:28:20.364Z,268.00
2024-03-05T03:28:34.452Z,268.00
2024-03-05T03:28:48.476Z,268.00
2024-03-05T03:29:16.531Z,269.00
2024-03-05T03:29:30.529Z,268.00
2024-03-05T03:29:44.526Z,268.00
2024-03-05T03:29:58.531Z,269.00
2024-03-05T03:30:26.549Z,270.00
2024-03-05T03:30:40.555Z,269.00
2024-03-05T03:30:54.596Z,270.00
2024-03-05T03:31:08.600Z,270.00
2024-03-05T03:31:36.600Z,271.00
2024-03-05T03:31:50.692Z,271.00
2024-03-05T03:32:04.750Z,272.00
2024-03-05T03:32:18.734Z,272.00
2024-03-05T03:32:46.728Z,272.00
2024-03-05T03:33:00.769Z,272.00
2024-03-05T03:33:14.849Z,272.00
2024-03-05T03:33:28.859Z,272.00
2024-03-05T03:33:56.836Z,270.00
2024-03-05T03:34:10.828Z,270.00
2024-03-05T03:34:24.877Z,269.00
2024-03-05T03:34:39.045Z,269.00
2024-03-05T03:35:07.143Z,269.00
2024-03-05T03:35:21.211Z,270.00
2024-03-05T03:35:35.188Z,270.00
2024-03-05T03:35:49.203Z,269.00